Terminal Aerodrome Forecast
Issued by NWS Salt Lake City, UT

Current Version | Previous Version | Text Only | Print | Product List | Glossary On
Versions: 1 2 3 4 5 6 7 8 9 10 11 12 13 14 15 16 17 18 19 20 21 22 23 24 25 26 27 28 29
000
FTUS45 KSLC 221733
TAFCDC
TAF
KCDC 221733Z 2218/2318 22010G18KT P6SM VCSH SCT040 BKN080
     FM222000 20010G18KT P6SM VCTS SCT040CB BKN080
     FM230200 20006KT P6SM VCSH SCT040 BKN080
     FM230900 17008KT P6SM -RA BKN060 OVC080=

USA.gov is the U.S. government's official web portal to all federal, state and local government web resources and services.